createdAt,value
2019-06-20T00:01:35.125Z,647.37
2019-06-20T00:04:01.225Z,551.55
2019-06-20T00:06:27.418Z,578.38
2019-06-20T00:08:53.658Z,558.75
2019-06-20T00:11:19.855Z,581.92
2019-06-20T00:13:45.924Z,563.45
2019-06-20T00:16:12.015Z,558.38
2019-06-20T00:18:38.080Z,561.28
2019-06-20T00:21:04.148Z,558.23
2019-06-20T00:23:30.245Z,564.73
2019-06-20T00:25:56.409Z,552.95
2019-06-20T00:28:22.500Z,563.35
2019-06-20T00:30:48.583Z,571.53
2019-06-20T00:33:14.658Z,555.73
2019-06-20T00:35:40.939Z,556.52
2019-06-20T00:38:07.010Z,557.75
2019-06-20T00:40:33.110Z,553.33
2019-06-20T00:42:59.176Z,560.92
2019-06-20T00:45:25.239Z,581.42
2019-06-20T00:47:51.346Z,574.52
2019-06-20T00:50:17.512Z,558.83
2019-06-20T00:52:43.599Z,543.35
2019-06-20T00:55:10.206Z,554.72
2019-06-20T00:57:36.294Z,563.65
2019-06-20T01:00:06.435Z,559.58
2019-06-20T01:02:32.611Z,553.27
2019-06-20T01:04:58.687Z,549.40
2019-06-20T01:07:24.888Z,571.80
2019-06-20T01:09:50.972Z,565.95
2019-06-20T01:12:17.052Z,551.08
2019-06-20T01:14:43.256Z,589.37
2019-06-20T01:17:09.425Z,586.88
2019-06-20T01:19:35.500Z,578.10
2019-06-20T01:22:01.644Z,572.00
2019-06-20T01:24:27.841Z,567.27
2019-06-20T01:26:53.936Z,585.10
2019-06-20T01:29:20.017Z,584.63
2019-06-20T01:31:46.174Z,695.98
2019-06-20T01:34:12.263Z,588.58
2019-06-20T01:36:38.336Z,560.20
2019-06-20T01:39:05.542Z,578.02
2019-06-20T01:41:31.604Z,559.52
2019-06-20T01:43:57.680Z,589.40
2019-06-20T01:46:23.868Z,554.50
2019-06-20T01:48:49.956Z,566.92
2019-06-20T01:51:16.284Z,562.10
2019-06-20T01:53:42.352Z,559.73
2019-06-20T01:56:08.420Z,563.60
2019-06-20T01:58:34.525Z,570.55
2019-06-20T02:01:00.708Z,557.30
2019-06-20T02:03:26.771Z,562.25
2019-06-20T02:05:52.871Z,567.25
2019-06-20T02:08:18.936Z,557.60
2019-06-20T02:10:45.154Z,583.17
2019-06-20T02:13:11.356Z,571.48
2019-06-20T02:15:37.537Z,559.67
2019-06-20T02:18:03.939Z,559.58
2019-06-20T02:20:49.374Z,563.12
2019-06-20T02:23:15.488Z,549.35
2019-06-20T02:25:41.572Z,583.53
2019-06-20T02:28:07.639Z,572.02
2019-06-20T02:30:33.725Z,574.67
2019-06-20T02:32:59.893Z,557.88
2019-06-20T02:35:26.002Z,559.80
2019-06-20T02:37:52.186Z,567.77
2019-06-20T02:40:18.647Z,551.08
2019-06-20T02:42:45.032Z,561.33
2019-06-20T02:45:11.608Z,549.00
2019-06-20T02:47:37.797Z,552.92
2019-06-20T02:50:04.969Z,563.03
2019-06-20T02:52:31.237Z,566.77
2019-06-20T02:54:57.322Z,559.52
2019-06-20T02:57:23.408Z,562.10
2019-06-20T02:59:49.499Z,564.48
2019-06-20T03:02:15.664Z,562.02
2019-06-20T03:04:45.480Z,584.45
2019-06-20T03:07:09.733Z,558.65
2019-06-20T03:09:35.801Z,551.58
2019-06-20T03:12:01.868Z,554.40
2019-06-20T03:14:27.947Z,555.22
2019-06-20T03:16:54.015Z,567.63
2019-06-20T03:19:20.112Z,578.83
2019-06-20T03:21:46.286Z,560.00
2019-06-20T03:24:12.349Z,615.15
2019-06-20T03:26:38.432Z,582.52
2019-06-20T03:29:04.508Z,550.98
2019-06-20T03:31:30.712Z,550.83
2019-06-20T03:33:56.890Z,572.25
2019-06-20T03:36:22.972Z,565.28
2019-06-20T03:38:49.059Z,579.92
2019-06-20T03:41:15.132Z,568.48
2019-06-20T03:43:41.240Z,571.00
2019-06-20T03:46:07.387Z,568.05
2019-06-20T03:48:33.565Z,585.55
2019-06-20T03:50:59.641Z,550.92
2019-06-20T03:53:25.736Z,596.00
2019-06-20T03:55:51.803Z,564.05
2019-06-20T03:58:17.893Z,576.42
2019-06-20T04:00:43.985Z,578.02
2019-06-20T04:03:10.141Z,552.70
2019-06-20T04:05:36.329Z,544.45
2019-06-20T04:08:02.812Z,548.75
2019-06-20T04:10:28.984Z,546.60
2019-06-20T04:12:55.056Z,547.00
2019-06-20T04:15:21.151Z,541.42
2019-06-20T04:17:47.313Z,543.40
2019-06-20T04:20:13.397Z,553.67
2019-06-20T04:22:39.464Z,561.67
2019-06-20T04:25:06.365Z,541.88
2019-06-20T04:27:32.437Z,550.27
2019-06-20T04:29:58.625Z,565.08
2019-06-20T04:32:24.699Z,554.38
2019-06-20T04:34:50.820Z,560.02
2019-06-20T04:37:16.884Z,547.15
2019-06-20T04:39:42.961Z,541.75
2019-06-20T04:42:09.023Z,562.77
2019-06-20T04:44:35.109Z,546.25
2019-06-20T04:47:05.585Z,558.23
2019-06-20T04:49:31.669Z,554.42
2019-06-20T04:51:57.745Z,550.92
2019-06-20T04:54:23.836Z,558.75
2019-06-20T04:56:49.924Z,556.02
2019-06-20T04:59:16.115Z,553.58
2019-06-20T05:01:42.245Z,666.23
2019-06-20T05:04:08.372Z,575.85
2019-06-20T05:06:34.449Z,564.95
2019-06-20T05:09:00.528Z,559.77
2019-06-20T05:11:26.597Z,569.50
2019-06-20T05:13:52.673Z,551.75
2019-06-20T05:16:18.760Z,567.08
2019-06-20T05:18:44.824Z,554.42
2019-06-20T05:21:10.924Z,562.17
2019-06-20T05:23:37.005Z,559.20
2019-06-20T05:26:03.083Z,551.40
2019-06-20T05:28:29.173Z,552.00
2019-06-20T05:30:55.236Z,572.27
2019-06-20T05:33:21.309Z,555.67
2019-06-20T05:35:47.407Z,558.92
2019-06-20T05:38:13.672Z,570.35
2019-06-20T05:40:39.741Z,558.40
2019-06-20T05:43:05.825Z,583.00
2019-06-20T05:45:31.937Z,584.70
2019-06-20T05:47:58.087Z,559.70
2019-06-20T05:50:24.258Z,575.58
2019-06-20T05:52:50.332Z,572.77
2019-06-20T05:55:16.540Z,567.37
2019-06-20T05:57:42.605Z,570.95
2019-06-20T06:00:10.504Z,588.80
2019-06-20T06:02:36.703Z,574.45
2019-06-20T06:05:04.756Z,585.67
2019-06-20T06:07:30.857Z,592.98
2019-06-20T06:09:57.027Z,595.75
2019-06-20T06:12:23.193Z,575.75
2019-06-20T06:14:49.255Z,562.00
2019-06-20T06:17:15.342Z,563.70
2019-06-20T06:19:41.432Z,573.23
2019-06-20T06:22:07.601Z,577.62
2019-06-20T06:24:33.668Z,570.67
2019-06-20T06:27:00.166Z,571.55
2019-06-20T06:29:26.551Z,580.10
2019-06-20T06:31:52.636Z,615.58
2019-06-20T06:34:21.898Z,569.95
2019-06-20T06:36:46.719Z,602.37
2019-06-20T06:39:12.884Z,591.60
2019-06-20T06:41:38.981Z,570.02
2019-06-20T06:44:07.617Z,591.12
2019-06-20T06:46:43.281Z,577.90
2019-06-20T06:49:01.078Z,632.88
2019-06-20T06:51:27.966Z,614.95
2019-06-20T06:53:54.046Z,577.85
2019-06-20T06:56:20.153Z,580.13
2019-06-20T06:58:46.310Z,594.30
2019-06-20T07:01:12.401Z,585.13
2019-06-20T07:03:38.473Z,592.22
2019-06-20T07:06:04.559Z,597.55
2019-06-20T07:08:30.647Z,575.80
2019-06-20T07:10:56.828Z,611.73
2019-06-20T07:13:22.921Z,668.02
2019-06-20T07:15:49.094Z,604.48
2019-06-20T07:18:15.260Z,588.77
2019-06-20T07:20:41.439Z,606.90
2019-06-20T07:23:07.481Z,615.10
2019-06-20T07:25:33.772Z,588.15
2019-06-20T07:27:59.848Z,587.42
2019-06-20T07:30:26.217Z,576.92
2019-06-20T07:32:52.336Z,585.27
2019-06-20T07:35:18.992Z,584.17
2019-06-20T07:37:45.059Z,589.92
2019-06-20T07:40:11.783Z,594.17
2019-06-20T07:42:38.011Z,581.45
2019-06-20T07:45:07.016Z,586.05
2019-06-20T07:47:33.185Z,579.58
2019-06-20T07:49:59.252Z,585.37
2019-06-20T07:52:25.336Z,591.88
2019-06-20T07:54:51.415Z,585.37
2019-06-20T07:57:17.537Z,588.37
2019-06-20T07:59:43.709Z,593.17
2019-06-20T08:02:09.873Z,582.85
2019-06-20T08:04:35.956Z,581.13
2019-06-20T08:07:02.029Z,581.92
2019-06-20T08:09:43.977Z,589.20
2019-06-20T08:11:56.102Z,586.08
2019-06-20T08:14:22.180Z,598.37
2019-06-20T08:16:48.321Z,685.48
2019-06-20T08:19:14.557Z,590.77
2019-06-20T08:21:43.970Z,593.58
2019-06-20T08:24:08.630Z,593.27
2019-06-20T08:26:34.702Z,594.45
2019-06-20T08:29:16.613Z,607.05
2019-06-20T08:31:28.848Z,612.62
2019-06-20T08:33:55.957Z,602.40
2019-06-20T08:36:22.911Z,592.87
2019-06-20T08:38:48.988Z,593.17
2019-06-20T08:41:15.078Z,610.87
2019-06-20T08:43:41.150Z,606.90
2019-06-20T08:46:10.309Z,591.15
2019-06-20T08:48:35.217Z,589.83
2019-06-20T08:51:02.247Z,605.67
2019-06-20T08:53:28.776Z,601.45
2019-06-20T08:55:56.307Z,594.52
2019-06-20T08:58:23.160Z,591.55
2019-06-20T09:00:49.337Z,601.17
2019-06-20T09:03:15.453Z,606.83
2019-06-20T09:05:41.604Z,592.12
2019-06-20T09:08:11.135Z,603.60
2019-06-20T09:10:37.296Z,596.25
2019-06-20T09:13:04.159Z,618.70
2019-06-20T09:15:30.347Z,625.87
2019-06-20T09:17:56.803Z,651.08
2019-06-20T09:20:23.311Z,642.80
2019-06-20T09:22:49.384Z,606.30
2019-06-20T09:25:15.683Z,615.17
2019-06-20T09:27:41.763Z,595.05
2019-06-20T09:30:10.359Z,609.37
2019-06-20T09:32:36.760Z,626.08
2019-06-20T09:35:08.253Z,654.27
2019-06-20T09:37:34.640Z,650.67
2019-06-20T09:40:00.708Z,667.48
2019-06-20T09:42:26.804Z,704.20
2019-06-20T09:44:54.074Z,688.45
2019-06-20T09:47:20.248Z,723.65
2019-06-20T09:49:49.233Z,706.63
2019-06-20T09:52:14.634Z,731.40
2019-06-20T09:54:40.825Z,708.30
2019-06-20T09:57:06.896Z,705.37
2019-06-20T09:59:32.964Z,671.50
2019-06-20T10:01:59.068Z,641.02
2019-06-20T10:04:25.150Z,602.75
2019-06-20T10:06:52.314Z,604.02
2019-06-20T10:09:18.634Z,595.70
2019-06-20T10:11:45.314Z,591.70
2019-06-20T10:14:12.964Z,590.85
2019-06-20T10:16:45.636Z,627.97
2019-06-20T10:19:07.036Z,585.73
2019-06-20T10:21:33.108Z,588.87
2019-06-20T10:23:59.199Z,585.87
2019-06-20T10:26:25.274Z,587.83
2019-06-20T10:28:51.504Z,593.58
2019-06-20T10:31:17.615Z,582.05
2019-06-20T10:33:45.165Z,575.12
2019-06-20T10:36:11.716Z,577.90
2019-06-20T10:38:37.803Z,572.98
2019-06-20T10:41:03.871Z,575.10
2019-06-20T10:43:30.109Z,591.55
2019-06-20T10:45:56.712Z,577.97
2019-06-20T10:48:22.964Z,581.27
2019-06-20T10:50:49.814Z,581.05
2019-06-20T10:53:16.021Z,575.90
2019-06-20T10:55:43.297Z,608.15
2019-06-20T10:58:09.591Z,579.45
2019-06-20T11:00:35.771Z,576.82
2019-06-20T11:03:02.052Z,578.42
2019-06-20T11:05:28.115Z,584.13
2019-06-20T11:07:54.201Z,586.28
2019-06-20T11:10:20.868Z,592.22
2019-06-20T11:12:52.359Z,591.27
2019-06-20T11:15:17.719Z,588.30
2019-06-20T11:17:44.150Z,593.77
2019-06-20T11:20:11.589Z,602.17
2019-06-20T11:22:38.399Z,602.42
2019-06-20T11:25:05.749Z,588.83
2019-06-20T11:27:31.933Z,597.02
2019-06-20T11:29:58.016Z,596.83
2019-06-20T11:32:24.088Z,600.80
2019-06-20T11:34:50.171Z,603.20
2019-06-20T11:37:16.286Z,612.02
2019-06-20T11:39:43.246Z,597.05
2019-06-20T11:42:09.511Z,602.90
2019-06-20T11:44:37.013Z,608.95
2019-06-20T11:47:03.254Z,624.75
2019-06-20T11:49:29.438Z,624.15
2019-06-20T11:51:55.500Z,652.97
2019-06-20T11:54:21.593Z,643.13
2019-06-20T11:56:47.667Z,633.67
2019-06-20T11:59:13.749Z,666.25
2019-06-20T12:01:41.221Z,685.02
2019-06-20T12:04:09.493Z,697.10
2019-06-20T12:06:35.816Z,706.73
2019-06-20T12:09:02.183Z,709.55
2019-06-20T12:11:28.267Z,734.60
2019-06-20T12:13:54.334Z,698.25
2019-06-20T12:16:20.420Z,687.12
2019-06-20T12:18:47.293Z,677.92
2019-06-20T12:21:13.579Z,645.70
2019-06-20T12:23:40.670Z,658.67
2019-06-20T12:26:07.637Z,647.27
2019-06-20T12:28:33.706Z,649.23
2019-06-20T12:30:59.796Z,638.08
2019-06-20T12:33:25.874Z,616.10
2019-06-20T12:35:51.980Z,608.72
2019-06-20T12:38:18.175Z,624.58
2019-06-20T12:40:46.180Z,624.48
2019-06-20T12:43:12.454Z,622.23
2019-06-20T12:45:39.717Z,614.92
2019-06-20T12:48:06.509Z,625.90
2019-06-20T12:50:32.578Z,610.40
2019-06-20T12:52:58.668Z,618.48
2019-06-20T12:55:24.738Z,590.50
2019-06-20T12:57:51.117Z,586.23
2019-06-20T13:00:19.418Z,591.70
2019-06-20T13:02:45.711Z,621.00
2019-06-20T13:05:14.388Z,612.42
2019-06-20T13:07:42.162Z,590.25
2019-06-20T13:10:08.947Z,586.75
2019-06-20T13:12:35.004Z,589.32
2019-06-20T13:15:01.075Z,585.42
2019-06-20T13:17:27.141Z,582.75
2019-06-20T13:19:53.207Z,583.45
2019-06-20T13:22:19.267Z,604.65
2019-06-20T13:24:45.334Z,654.02
2019-06-20T13:27:11.405Z,601.70
2019-06-20T13:29:39.017Z,567.22
2019-06-20T13:32:05.368Z,577.97
2019-06-20T13:34:31.440Z,581.55
2019-06-20T13:36:57.544Z,565.65
2019-06-20T13:39:23.617Z,588.55
2019-06-20T13:41:50.309Z,572.98
2019-06-20T13:44:17.583Z,583.67
2019-06-20T13:46:44.591Z,699.05
2019-06-20T13:49:10.805Z,577.52
2019-06-20T13:51:36.908Z,569.02
2019-06-20T13:54:03.495Z,565.33
2019-06-20T13:56:29.667Z,566.88
2019-06-20T13:58:55.852Z,584.10
2019-06-20T14:01:22.054Z,561.23
2019-06-20T14:03:48.734Z,570.70
2019-06-20T14:06:15.041Z,578.75
2019-06-20T14:08:42.439Z,616.73
2019-06-20T14:11:09.223Z,585.10
2019-06-20T14:13:35.598Z,577.08
2019-06-20T14:16:01.732Z,556.52
2019-06-20T14:18:27.911Z,560.35
2019-06-20T14:20:55.214Z,583.38
2019-06-20T14:23:21.439Z,568.90
2019-06-20T14:25:48.676Z,556.05
2019-06-20T14:28:15.080Z,541.75
2019-06-20T14:30:41.259Z,578.25
2019-06-20T14:33:07.339Z,547.90
2019-06-20T14:35:33.425Z,564.75
2019-06-20T14:37:59.506Z,572.48
2019-06-20T14:40:25.575Z,566.62
2019-06-20T14:42:52.411Z,542.98
2019-06-20T14:45:19.129Z,550.95
2019-06-20T14:47:45.218Z,546.80
2019-06-20T14:50:12.191Z,547.63
2019-06-20T14:52:38.381Z,554.38
2019-06-20T14:55:06.373Z,557.25
2019-06-20T14:57:32.464Z,552.83
2019-06-20T14:59:58.533Z,544.30
2019-06-20T15:02:37.583Z,541.67
2019-06-20T15:04:52.695Z,557.85
2019-06-20T15:07:18.802Z,549.60
2019-06-20T15:09:46.259Z,546.33
2019-06-20T15:12:12.857Z,558.98
2019-06-20T15:14:39.026Z,542.95
2019-06-20T15:17:05.109Z,538.15
2019-06-20T15:19:31.176Z,559.48
2019-06-20T15:21:57.278Z,546.70
2019-06-20T15:24:23.453Z,543.67
2019-06-20T15:26:51.093Z,562.23
2019-06-20T15:29:17.592Z,541.88
2019-06-20T15:31:43.884Z,655.63
2019-06-20T15:34:10.060Z,545.57
2019-06-20T15:36:36.146Z,548.97
2019-06-20T15:39:05.428Z,545.40
2019-06-20T15:41:31.505Z,547.67
2019-06-20T15:43:57.887Z,564.32
2019-06-20T15:46:24.364Z,545.62
2019-06-20T15:48:50.466Z,557.62
2019-06-20T15:51:16.531Z,548.70
2019-06-20T15:53:42.604Z,582.52
2019-06-20T15:56:08.698Z,586.42
2019-06-20T15:58:34.857Z,609.03
2019-06-20T16:01:00.954Z,619.42
2019-06-20T16:03:27.024Z,607.98
2019-06-20T16:05:53.182Z,613.55
2019-06-20T16:08:19.283Z,642.30
2019-06-20T16:10:45.348Z,642.53
2019-06-20T16:13:11.474Z,655.35
2019-06-20T16:15:37.892Z,675.08
2019-06-20T16:18:03.960Z,727.25
2019-06-20T16:20:30.046Z,747.50
2019-06-20T16:22:56.121Z,764.55
2019-06-20T16:25:22.301Z,759.10
2019-06-20T16:27:48.366Z,748.45
2019-06-20T16:30:15.247Z,771.15
2019-06-20T16:32:41.499Z,773.45
2019-06-20T16:35:08.179Z,772.87
2019-06-20T16:37:34.614Z,812.45
2019-06-20T16:40:00.808Z,893.50
2019-06-20T16:42:26.876Z,947.37
2019-06-20T16:44:52.962Z,994.93
2019-06-20T16:47:19.134Z,1006.83
2019-06-20T16:49:45.218Z,1016.87
2019-06-20T16:52:11.292Z,1047.87
2019-06-20T16:54:37.387Z,1043.60
2019-06-20T16:57:03.554Z,1046.93
2019-06-20T16:59:29.637Z,1053.37
2019-06-20T17:01:55.706Z,1071.07
2019-06-20T17:04:21.785Z,1047.77
2019-06-20T17:06:47.877Z,1023.80
2019-06-20T17:09:14.144Z,965.30
2019-06-20T17:11:40.237Z,905.87
2019-06-20T17:14:06.312Z,847.72
2019-06-20T17:16:32.400Z,762.10
2019-06-20T17:18:58.513Z,695.35
2019-06-20T17:21:24.757Z,639.27
2019-06-20T17:23:50.893Z,620.50
2019-06-20T17:26:17.008Z,598.65
2019-06-20T17:28:43.075Z,601.08
2019-06-20T17:31:09.262Z,605.25
2019-06-20T17:33:35.429Z,598.75
2019-06-20T17:36:14.406Z,609.95
2019-06-20T17:38:29.502Z,597.67
2019-06-20T17:40:55.602Z,594.10
2019-06-20T17:43:21.665Z,592.60
2019-06-20T17:45:47.744Z,580.48
2019-06-20T17:48:13.814Z,582.62
2019-06-20T17:50:40.013Z,593.10
2019-06-20T17:53:06.163Z,582.00
2019-06-20T17:55:32.227Z,576.80
2019-06-20T17:57:58.321Z,569.37
2019-06-20T18:00:25.093Z,583.38
2019-06-20T18:02:51.192Z,566.30
2019-06-20T18:05:17.585Z,587.60
2019-06-20T18:07:43.839Z,581.85
2019-06-20T18:10:12.076Z,574.55
2019-06-20T18:12:38.156Z,578.88
2019-06-20T18:15:05.520Z,577.97
2019-06-20T18:17:31.712Z,579.75
2019-06-20T18:19:57.780Z,619.20
2019-06-20T18:22:23.863Z,569.92
2019-06-20T18:24:49.944Z,578.73
2019-06-20T18:27:16.005Z,576.17
2019-06-20T18:29:42.090Z,572.73
2019-06-20T18:32:08.159Z,574.12
2019-06-20T18:34:34.245Z,573.50
2019-06-20T18:37:00.332Z,570.38
2019-06-20T18:39:26.424Z,578.60
2019-06-20T18:41:52.493Z,575.05
2019-06-20T18:44:18.672Z,576.70
2019-06-20T18:46:44.740Z,625.75
2019-06-20T18:49:10.837Z,561.58
2019-06-20T18:51:36.916Z,569.88
2019-06-20T18:54:03.495Z,582.62
2019-06-20T18:56:29.606Z,562.02
2019-06-20T18:58:55.753Z,551.20
2019-06-20T19:01:22.009Z,557.58
2019-06-20T19:03:48.130Z,551.37
2019-06-20T19:06:14.301Z,564.20
2019-06-20T19:08:40.384Z,561.50
2019-06-20T19:11:06.555Z,578.45
2019-06-20T19:13:32.719Z,564.25
2019-06-20T19:15:58.965Z,560.35
2019-06-20T19:18:25.102Z,561.25
2019-06-20T19:20:51.229Z,568.50
2019-06-20T19:23:17.287Z,555.10
2019-06-20T19:25:43.467Z,559.85
2019-06-20T19:28:09.565Z,563.35
2019-06-20T19:30:42.231Z,556.83
2019-06-20T19:33:08.401Z,556.00
2019-06-20T19:35:34.571Z,553.38
2019-06-20T19:38:00.769Z,550.72
2019-06-20T19:40:30.729Z,545.55
2019-06-20T19:42:56.929Z,558.70
2019-06-20T19:45:23.138Z,536.12
2019-06-20T19:47:49.305Z,552.58
2019-06-20T19:50:15.681Z,557.27
2019-06-20T19:52:41.749Z,545.67
2019-06-20T19:55:09.071Z,554.30
2019-06-20T19:57:35.158Z,542.30
2019-06-20T20:00:02.849Z,550.75
2019-06-20T20:02:28.931Z,548.23
2019-06-20T20:04:55.119Z,553.00
2019-06-20T20:07:21.197Z,585.02
2019-06-20T20:09:47.357Z,562.67
2019-06-20T20:12:13.454Z,548.52
2019-06-20T20:14:39.625Z,557.47
2019-06-20T20:17:05.809Z,557.83
2019-06-20T20:19:31.873Z,558.65
2019-06-20T20:21:57.970Z,553.85
2019-06-20T20:24:24.233Z,560.58
2019-06-20T20:26:50.304Z,566.45
2019-06-20T20:29:16.374Z,551.87
2019-06-20T20:31:42.427Z,553.33
2019-06-20T20:34:11.755Z,554.17
2019-06-20T20:36:36.817Z,544.20
2019-06-20T20:39:05.641Z,548.92
2019-06-20T20:41:31.707Z,548.23
2019-06-20T20:43:57.780Z,549.75
2019-06-20T20:46:23.864Z,540.95
2019-06-20T20:48:49.938Z,550.75
2019-06-20T20:51:16.116Z,558.75
2019-06-20T20:53:42.187Z,536.70
2019-06-20T20:56:08.282Z,538.75
2019-06-20T20:58:34.357Z,541.60
2019-06-20T21:01:06.986Z,546.35
2019-06-20T21:03:33.085Z,547.02
2019-06-20T21:05:59.240Z,539.15
2019-06-20T21:08:25.332Z,543.42
2019-06-20T21:10:51.497Z,534.05
2019-06-20T21:13:17.628Z,542.35
2019-06-20T21:15:43.756Z,546.22
2019-06-20T21:18:09.844Z,546.53
2019-06-20T21:20:35.927Z,555.67
2019-06-20T21:23:02.096Z,553.58
2019-06-20T21:25:31.906Z,549.33
2019-06-20T21:27:56.152Z,544.52
2019-06-20T21:30:22.646Z,552.95
2019-06-20T21:32:48.805Z,537.42
2019-06-20T21:35:15.417Z,538.42
2019-06-20T21:37:41.488Z,555.67
2019-06-20T21:40:08.958Z,542.33
2019-06-20T21:42:35.040Z,535.75
2019-06-20T21:45:01.109Z,542.33
2019-06-20T21:47:27.192Z,546.95
2019-06-20T21:49:53.259Z,542.45
2019-06-20T21:52:19.354Z,540.33
2019-06-20T21:54:45.428Z,547.67
2019-06-20T21:57:11.522Z,537.80
2019-06-20T21:59:37.707Z,537.60
2019-06-20T22:02:05.388Z,565.62
2019-06-20T22:04:31.573Z,531.27
2019-06-20T22:06:57.640Z,549.60
2019-06-20T22:09:23.709Z,535.10
2019-06-20T22:11:49.775Z,537.02
2019-06-20T22:14:15.861Z,544.77
2019-06-20T22:16:41.932Z,558.30
2019-06-20T22:19:08.032Z,552.40
2019-06-20T22:21:34.098Z,540.23
2019-06-20T22:24:00.170Z,545.30
2019-06-20T22:26:26.260Z,554.62
2019-06-20T22:28:52.324Z,559.13
2019-06-20T22:31:18.405Z,569.00
2019-06-20T22:33:44.478Z,546.03
2019-06-20T22:36:11.340Z,557.73
2019-06-20T22:38:37.412Z,541.62
2019-06-20T22:41:03.476Z,568.33
2019-06-20T22:43:29.566Z,547.98
2019-06-20T22:45:55.641Z,537.90
2019-06-20T22:48:21.830Z,538.83
2019-06-20T22:50:47.897Z,549.73
2019-06-20T22:53:13.992Z,545.00
2019-06-20T22:55:40.066Z,544.97
2019-06-20T22:58:06.336Z,535.50
2019-06-20T23:00:33.121Z,545.65
2019-06-20T23:02:59.223Z,540.08
2019-06-20T23:05:25.392Z,551.92
2019-06-20T23:07:51.456Z,542.67
2019-06-20T23:10:17.548Z,545.10
2019-06-20T23:12:43.620Z,543.15
2019-06-20T23:15:10.115Z,546.05
2019-06-20T23:17:36.200Z,546.27
2019-06-20T23:20:06.445Z,551.30
2019-06-20T23:22:32.512Z,534.03
2019-06-20T23:24:58.595Z,553.23
2019-06-20T23:27:24.682Z,539.10
2019-06-20T23:29:50.858Z,555.00
2019-06-20T23:32:17.029Z,548.67
2019-06-20T23:34:43.115Z,550.25
2019-06-20T23:37:13.058Z,548.60
2019-06-20T23:39:37.220Z,570.90
2019-06-20T23:42:03.302Z,552.88
2019-06-20T23:44:29.465Z,556.90
2019-06-20T23:46:55.549Z,612.90
2019-06-20T23:49:21.631Z,545.95
2019-06-20T23:51:49.616Z,552.78
2019-06-20T23:54:15.704Z,551.25
2019-06-20T23:56:41.883Z,553.08
2019-06-20T23:59:07.952Z,543.02
